sensor_id;sensor_type;location;lat;lon;timestamp;pressure;altitude;pressure_sealevel;temperature;humidity
61757;BME280;57225;61.460;24.060;2023-02-12T00:01:27;100810.69;;;-8.37;100.00
61757;BME280;57225;61.460;24.060;2023-02-12T00:04:12;100808.59;;;-8.15;100.00
61757;BME280;57225;61.460;24.060;2023-02-12T00:06:57;100797.31;;;-8.07;100.00
61757;BME280;57225;61.460;24.060;2023-02-12T00:09:41;100818.19;;;-7.92;100.00
61757;BME280;57225;61.460;24.060;2023-02-12T00:12:25;100826.59;;;-7.84;100.00
61757;BME280;57225;61.460;24.060;2023-02-12T00:15:10;100826.09;;;-7.76;100.00
61757;BME280;57225;61.460;24.060;2023-02-12T00:17:54;100823.16;;;-7.74;100.00
61757;BME280;57225;61.460;24.060;2023-02-12T00:20:39;100815.78;;;-7.84;100.00
61757;BME280;57225;61.460;24.060;2023-02-12T00:23:23;100829.88;;;-7.82;100.00
61757;BME280;57225;61.460;24.060;2023-02-12T00:26:13;100840.19;;;-7.79;100.00
61757;BME280;57225;61.460;24.060;2023-02-12T00:28:58;100826.13;;;-7.71;100.00
61757;BME280;57225;61.460;24.060;2023-02-12T00:31:42;100847.25;;;-7.73;100.00
61757;BME280;57225;61.460;24.060;2023-02-12T00:34:27;100830.94;;;-7.88;100.00
61757;BME280;57225;61.460;24.060;2023-02-12T00:37:12;100853.72;;;-7.74;100.00
61757;BME280;57225;61.460;24.060;2023-02-12T00:39:56;100843.72;;;-7.68;100.00
61757;BME280;57225;61.460;24.060;2023-02-12T00:42:41;100835.88;;;-7.69;100.00
61757;BME280;57225;61.460;24.060;2023-02-12T00:45:25;100819.13;;;-7.61;100.00
61757;BME280;57225;61.460;24.060;2023-02-12T00:48:10;100814.75;;;-7.78;100.00
61757;BME280;57225;61.460;24.060;2023-02-12T00:50:54;100825.53;;;-7.83;100.00
61757;BME280;57225;61.460;24.060;2023-02-12T00:53:39;100808.38;;;-8.08;100.00
61757;BME280;57225;61.460;24.060;2023-02-12T00:56:23;100804.25;;;-8.31;100.00
61757;BME280;57225;61.460;24.060;2023-02-12T00:59:07;100814.78;;;-8.35;100.00
61757;BME280;57225;61.460;24.060;2023-02-12T01:01:53;100813.25;;;-8.58;100.00
61757;BME280;57225;61.460;24.060;2023-02-12T01:04:37;100813.72;;;-8.66;100.00
61757;BME280;57225;61.460;24.060;2023-02-12T01:07:22;100831.56;;;-8.65;100.00
61757;BME280;57225;61.460;24.060;2023-02-12T01:10:07;100830.72;;;-8.70;100.00
61757;BME280;57225;61.460;24.060;2023-02-12T01:12:52;100826.00;;;-8.85;100.00
61757;BME280;57225;61.460;24.060;2023-02-12T01:15:36;100831.66;;;-8.91;100.00
61757;BME280;57225;61.460;24.060;2023-02-12T01:18:21;100827.56;;;-8.94;100.00
61757;BME280;57225;61.460;24.060;2023-02-12T01:21:13;100852.78;;;-8.78;100.00
61757;BME280;57225;61.460;24.060;2023-02-12T01:23:58;100847.31;;;-8.88;100.00
61757;BME280;57225;61.460;24.060;2023-02-12T01:26:42;100847.03;;;-8.92;100.00
61757;BME280;57225;61.460;24.060;2023-02-12T01:29:27;100851.09;;;-8.89;100.00
61757;BME280;57225;61.460;24.060;2023-02-12T01:32:12;100856.59;;;-8.79;100.00
61757;BME280;57225;61.460;24.060;2023-02-12T01:34:57;100842.94;;;-8.95;100.00
61757;BME280;57225;61.460;24.060;2023-02-12T01:37:41;100868.06;;;-8.94;100.00
61757;BME280;57225;61.460;24.060;2023-02-12T01:40:25;100863.31;;;-9.09;100.00
61757;BME280;57225;61.460;24.060;2023-02-12T01:43:11;100840.50;;;-9.23;100.00
61757;BME280;57225;61.460;24.060;2023-02-12T01:45:58;100844.66;;;-9.10;100.00
61757;BME280;57225;61.460;24.060;2023-02-12T01:48:45;100837.09;;;-9.13;100.00
61757;BME280;57225;61.460;24.060;2023-02-12T01:51:32;100835.44;;;-9.19;100.00
61757;BME280;57225;61.460;24.060;2023-02-12T01:54:19;100845.69;;;-9.16;100.00
61757;BME280;57225;61.460;24.060;2023-02-12T01:57:07;100838.69;;;-9.17;100.00
61757;BME280;57225;61.460;24.060;2023-02-12T01:59:53;100814.25;;;-9.32;100.00
61757;BME280;57225;61.460;24.060;2023-02-12T02:02:39;100823.00;;;-9.20;100.00
61757;BME280;57225;61.460;24.060;2023-02-12T02:05:57;100836.31;;;-9.09;100.00
61757;BME280;57225;61.460;24.060;2023-02-12T02:08:44;100831.75;;;-9.08;100.00
61757;BME280;57225;61.460;24.060;2023-02-12T02:11:29;100828.53;;;-9.05;100.00
61757;BME280;57225;61.460;24.060;2023-02-12T02:14:32;100808.59;;;-9.04;100.00
61757;BME280;57225;61.460;24.060;2023-02-12T02:36:35;100789.16;;;-9.01;100.00
61757;BME280;57225;61.460;24.060;2023-02-12T02:39:27;100769.69;;;-9.03;100.00
61757;BME280;57225;61.460;24.060;2023-02-12T02:45:25;100763.56;;;-8.93;100.00
61757;BME280;57225;61.460;24.060;2023-02-12T02:48:28;100764.44;;;-8.83;100.00
61757;BME280;57225;61.460;24.060;2023-02-12T02:51:26;100767.75;;;-8.76;100.00
61757;BME280;57225;61.460;24.060;2023-02-12T02:54:20;100775.63;;;-8.69;100.00
61757;BME280;57225;61.460;24.060;2023-02-12T02:57:29;100720.88;;;-8.97;100.00
61757;BME280;57225;61.460;24.060;2023-02-12T03:00:19;100776.47;;;-8.64;100.00
61757;BME280;57225;61.460;24.060;2023-02-12T03:03:13;100795.16;;;-8.57;100.00
61757;BME280;57225;61.460;24.060;2023-02-12T03:06:26;100794.06;;;-8.61;100.00
61757;BME280;57225;61.460;24.060;2023-02-12T03:09:33;100785.66;;;-8.60;100.00
61757;BME280;57225;61.460;24.060;2023-02-12T03:12:26;100784.06;;;-8.61;100.00
61757;BME280;57225;61.460;24.060;2023-02-12T03:15:25;100791.59;;;-8.63;100.00
61757;BME280;57225;61.460;24.060;2023-02-12T03:18:18;100766.59;;;-8.85;100.00
61757;BME280;57225;61.460;24.060;2023-02-12T03:21:09;100798.56;;;-8.72;100.00
61757;BME280;57225;61.460;24.060;2023-02-12T03:27:09;100787.41;;;-8.85;100.00
61757;BME280;57225;61.460;24.060;2023-02-12T03:29:56;100800.41;;;-8.77;100.00
61757;BME280;57225;61.460;24.060;2023-02-12T03:32:51;100796.03;;;-8.83;100.00
61757;BME280;57225;61.460;24.060;2023-02-12T03:35:44;100789.22;;;-8.91;100.00
61757;BME280;57225;61.460;24.060;2023-02-12T03:39:19;100797.88;;;-8.89;100.00
61757;BME280;57225;61.460;24.060;2023-02-12T03:42:13;100772.34;;;-9.08;100.00
61757;BME280;57225;61.460;24.060;2023-02-12T03:45:43;100796.47;;;-8.97;100.00
61757;BME280;57225;61.460;24.060;2023-02-12T03:51:29;100794.06;;;-8.98;100.00
61757;BME280;57225;61.460;24.060;2023-02-12T03:54:19;100797.78;;;-9.04;100.00
61757;BME280;57225;61.460;24.060;2023-02-12T03:57:11;100793.44;;;-9.05;100.00
61757;BME280;57225;61.460;24.060;2023-02-12T03:59:57;100796.19;;;-9.00;100.00
61757;BME280;57225;61.460;24.060;2023-02-12T04:02:42;100792.91;;;-9.02;100.00
61757;BME280;57225;61.460;24.060;2023-02-12T04:05:27;100787.56;;;-8.97;100.00
61757;BME280;57225;61.460;24.060;2023-02-12T04:08:11;100777.31;;;-8.95;100.00
61757;BME280;57225;61.460;24.060;2023-02-12T04:11:24;100781.72;;;-8.84;100.00
61757;BME280;57225;61.460;24.060;2023-02-12T04:26:36;100804.03;;;-8.62;100.00
61757;BME280;57225;61.460;24.060;2023-02-12T04:29:41;100797.28;;;-8.59;100.00
61757;BME280;57225;61.460;24.060;2023-02-12T04:32:46;100779.25;;;-8.53;100.00
61757;BME280;57225;61.460;24.060;2023-02-12T04:35:34;100783.31;;;-8.51;100.00
61757;BME280;57225;61.460;24.060;2023-02-12T04:38:25;100780.63;;;-8.46;100.00
61757;BME280;57225;61.460;24.060;2023-02-12T04:41:11;100769.22;;;-8.53;100.00
61757;BME280;57225;61.460;24.060;2023-02-12T04:43:56;100771.19;;;-8.43;100.00
61757;BME280;57225;61.460;24.060;2023-02-12T04:46:41;100747.91;;;-8.55;100.00
61757;BME280;57225;61.460;24.060;2023-02-12T04:49:26;100755.53;;;-8.41;100.00
61757;BME280;57225;61.460;24.060;2023-02-12T04:52:10;100747.72;;;-8.33;100.00
61757;BME280;57225;61.460;24.060;2023-02-12T04:54:55;100752.88;;;-8.26;100.00
61757;BME280;57225;61.460;24.060;2023-02-12T04:57:39;100747.56;;;-8.06;100.00
61757;BME280;57225;61.460;24.060;2023-02-12T05:00:24;100730.25;;;-8.05;100.00
61757;BME280;57225;61.460;24.060;2023-02-12T05:03:08;100725.41;;;-8.03;100.00
61757;BME280;57225;61.460;24.060;2023-02-12T05:05:52;100733.53;;;-7.98;100.00
61757;BME280;57225;61.460;24.060;2023-02-12T05:08:37;100731.41;;;-7.91;100.00
61757;BME280;57225;61.460;24.060;2023-02-12T05:11:22;100724.34;;;-7.87;100.00
61757;BME280;57225;61.460;24.060;2023-02-12T05:14:06;100719.78;;;-7.76;100.00
61757;BME280;57225;61.460;24.060;2023-02-12T05:16:50;100708.13;;;-7.77;100.00
61757;BME280;57225;61.460;24.060;2023-02-12T05:19:35;100709.00;;;-7.61;100.00
61757;BME280;57225;61.460;24.060;2023-02-12T05:22:19;100711.19;;;-7.53;100.00
61757;BME280;57225;61.460;24.060;2023-02-12T05:25:04;100710.38;;;-7.48;100.00
61757;BME280;57225;61.460;24.060;2023-02-12T05:27:48;100709.00;;;-7.46;100.00
61757;BME280;57225;61.460;24.060;2023-02-12T05:30:33;100702.25;;;-7.48;100.00
61757;BME280;57225;61.460;24.060;2023-02-12T05:33:17;100678.16;;;-7.55;100.00
61757;BME280;57225;61.460;24.060;2023-02-12T05:36:07;100693.06;;;-7.47;100.00
61757;BME280;57225;61.460;24.060;2023-02-12T05:38:55;100687.06;;;-7.39;100.00
61757;BME280;57225;61.460;24.060;2023-02-12T05:41:40;100686.00;;;-7.33;100.00
61757;BME280;57225;61.460;24.060;2023-02-12T05:44:24;100691.41;;;-7.13;100.00
61757;BME280;57225;61.460;24.060;2023-02-12T05:47:09;100682.75;;;-7.05;100.00
61757;BME280;57225;61.460;24.060;2023-02-12T05:49:53;100674.59;;;-7.00;100.00
61757;BME280;57225;61.460;24.060;2023-02-12T05:52:38;100677.84;;;-6.87;100.00
61757;BME280;57225;61.460;24.060;2023-02-12T05:55:22;100661.56;;;-6.77;100.00
61757;BME280;57225;61.460;24.060;2023-02-12T05:58:06;100651.81;;;-6.78;100.00
61757;BME280;57225;61.460;24.060;2023-02-12T06:00:51;100651.25;;;-6.80;100.00
61757;BME280;57225;61.460;24.060;2023-02-12T06:03:35;100652.31;;;-6.76;100.00
61757;BME280;57225;61.460;24.060;2023-02-12T06:06:20;100647.41;;;-6.59;100.00
61757;BME280;57225;61.460;24.060;2023-02-12T06:09:05;100639.00;;;-6.58;100.00
61757;BME280;57225;61.460;24.060;2023-02-12T06:11:49;100639.81;;;-6.57;100.00
61757;BME280;57225;61.460;24.060;2023-02-12T06:14:34;100636.03;;;-6.61;100.00
61757;BME280;57225;61.460;24.060;2023-02-12T06:17:19;100623.34;;;-6.71;100.00
61757;BME280;57225;61.460;24.060;2023-02-12T06:20:03;100641.72;;;-6.58;100.00
61757;BME280;57225;61.460;24.060;2023-02-12T06:22:48;100638.19;;;-6.58;100.00
61757;BME280;57225;61.460;24.060;2023-02-12T06:25:33;100633.03;;;-6.55;100.00
61757;BME280;57225;61.460;24.060;2023-02-12T06:28:17;100639.81;;;-6.52;100.00
61757;BME280;57225;61.460;24.060;2023-02-12T06:31:01;100631.13;;;-6.54;100.00
61757;BME280;57225;61.460;24.060;2023-02-12T06:33:45;100614.31;;;-6.56;100.00
61757;BME280;57225;61.460;24.060;2023-02-12T06:36:30;100620.25;;;-6.49;100.00
61757;BME280;57225;61.460;24.060;2023-02-12T06:55:47;100595.25;;;-6.36;100.00
61757;BME280;57225;61.460;24.060;2023-02-12T06:58:32;100580.56;;;-6.30;100.00
61757;BME280;57225;61.460;24.060;2023-02-12T07:01:19;100585.69;;;-6.23;100.00
61757;BME280;57225;61.460;24.060;2023-02-12T07:04:04;100582.91;;;-6.08;100.00
61757;BME280;57225;61.460;24.060;2023-02-12T07:06:48;100548.88;;;-5.95;100.00
61757;BME280;57225;61.460;24.060;2023-02-12T07:09:33;100562.28;;;-5.80;100.00
61757;BME280;57225;61.460;24.060;2023-02-12T07:12:17;100530.88;;;-5.86;100.00
61757;BME280;57225;61.460;24.060;2023-02-12T07:15:02;100546.41;;;-5.63;100.00
61757;BME280;57225;61.460;24.060;2023-02-12T07:17:46;100544.63;;;-5.44;100.00
61757;BME280;57225;61.460;24.060;2023-02-12T07:20:30;100544.16;;;-5.27;100.00
61757;BME280;57225;61.460;24.060;2023-02-12T07:23:15;100536.69;;;-5.16;100.00
61757;BME280;57225;61.460;24.060;2023-02-12T07:26:05;100534.66;;;-5.06;100.00
61757;BME280;57225;61.460;24.060;2023-02-12T07:28:50;100533.69;;;-4.91;100.00
61757;BME280;57225;61.460;24.060;2023-02-12T07:31:35;100530.72;;;-4.71;100.00
61757;BME280;57225;61.460;24.060;2023-02-12T07:34:20;100509.06;;;-4.57;100.00
61757;BME280;57225;61.460;24.060;2023-02-12T07:37:05;100517.97;;;-4.52;100.00
61757;BME280;57225;61.460;24.060;2023-02-12T07:39:50;100517.69;;;-4.31;100.00
61757;BME280;57225;61.460;24.060;2023-02-12T07:42:35;100510.69;;;-4.37;100.00
61757;BME280;57225;61.460;24.060;2023-02-12T07:45:19;100519.56;;;-4.13;100.00
61757;BME280;57225;61.460;24.060;2023-02-12T07:48:04;100530.97;;;-3.92;100.00
61757;BME280;57225;61.460;24.060;2023-02-12T07:50:48;100525.81;;;-3.61;100.00
61757;BME280;57225;61.460;24.060;2023-02-12T07:53:34;100546.91;;;-3.53;100.00
61757;BME280;57225;61.460;24.060;2023-02-12T07:56:25;100548.25;;;-3.37;100.00
61757;BME280;57225;61.460;24.060;2023-02-12T07:59:15;100538.06;;;-3.45;100.00
61757;BME280;57225;61.460;24.060;2023-02-12T08:02:00;100526.50;;;-3.23;100.00
61757;BME280;57225;61.460;24.060;2023-02-12T08:04:45;100521.75;;;-3.18;100.00
61757;BME280;57225;61.460;24.060;2023-02-12T08:07:29;100517.19;;;-3.09;100.00
61757;BME280;57225;61.460;24.060;2023-02-12T08:10:15;100515.16;;;-3.03;100.00
61757;BME280;57225;61.460;24.060;2023-02-12T08:12:59;100517.00;;;-2.99;100.00
61757;BME280;57225;61.460;24.060;2023-02-12T08:15:44;100499.63;;;-3.03;100.00
61757;BME280;57225;61.460;24.060;2023-02-12T08:18:32;100486.41;;;-2.96;100.00
61757;BME280;57225;61.460;24.060;2023-02-12T08:21:21;100481.63;;;-2.76;100.00
61757;BME280;57225;61.460;24.060;2023-02-12T08:24:06;100477.16;;;-2.59;100.00
61757;BME280;57225;61.460;24.060;2023-02-12T08:26:51;100459.63;;;-2.44;100.00
61757;BME280;57225;61.460;24.060;2023-02-12T08:29:35;100463.00;;;-2.47;100.00
61757;BME280;57225;61.460;24.060;2023-02-12T08:32:20;100463.72;;;-2.33;100.00
61757;BME280;57225;61.460;24.060;2023-02-12T08:35:04;100473.47;;;-2.40;100.00
61757;BME280;57225;61.460;24.060;2023-02-12T08:37:49;100500.72;;;-2.27;100.00
61757;BME280;57225;61.460;24.060;2023-02-12T08:40:34;100495.50;;;-2.15;100.00
61757;BME280;57225;61.460;24.060;2023-02-12T08:43:18;100489.31;;;-2.07;100.00
61757;BME280;57225;61.460;24.060;2023-02-12T08:46:11;100466.06;;;-2.04;100.00
61757;BME280;57225;61.460;24.060;2023-02-12T08:48:58;100477.03;;;-1.95;100.00
61757;BME280;57225;61.460;24.060;2023-02-12T08:51:46;100475.31;;;-1.91;100.00
61757;BME280;57225;61.460;24.060;2023-02-12T08:54:31;100472.31;;;-1.81;100.00
61757;BME280;57225;61.460;24.060;2023-02-12T08:57:16;100447.72;;;-1.81;100.00
61757;BME280;57225;61.460;24.060;2023-02-12T09:00:01;100454.88;;;-1.63;100.00
61757;BME280;57225;61.460;24.060;2023-02-12T09:02:47;100449.91;;;-1.61;100.00
61757;BME280;57225;61.460;24.060;2023-02-12T09:05:31;100442.34;;;-1.64;100.00
61757;BME280;57225;61.460;24.060;2023-02-12T09:08:16;100446.91;;;-1.51;100.00
61757;BME280;57225;61.460;24.060;2023-02-12T09:11:05;100445.03;;;-1.42;100.00
61757;BME280;57225;61.460;24.060;2023-02-12T09:13:52;100430.34;;;-1.54;100.00
61757;BME280;57225;61.460;24.060;2023-02-12T09:16:36;100434.63;;;-1.31;100.00
61757;BME280;57225;61.460;24.060;2023-02-12T09:19:23;100438.00;;;-1.26;100.00
61757;BME280;57225;61.460;24.060;2023-02-12T09:22:08;100434.50;;;-1.17;100.00
61757;BME280;57225;61.460;24.060;2023-02-12T09:24:52;100433.88;;;-1.14;100.00
61757;BME280;57225;61.460;24.060;2023-02-12T09:27:37;100431.16;;;-1.14;100.00
61757;BME280;57225;61.460;24.060;2023-02-12T09:30:21;100432.72;;;-1.13;100.00
61757;BME280;57225;61.460;24.060;2023-02-12T09:33:07;100443.72;;;-1.05;100.00
61757;BME280;57225;61.460;24.060;2023-02-12T09:35:54;100431.00;;;-1.09;100.00
61757;BME280;57225;61.460;24.060;2023-02-12T09:38:38;100438.94;;;-0.91;100.00
61757;BME280;57225;61.460;24.060;2023-02-12T09:47:22;100403.34;;;-0.82;100.00
61757;BME280;57225;61.460;24.060;2023-02-12T09:50:32;100396.28;;;-0.92;100.00
61757;BME280;57225;61.460;24.060;2023-02-12T09:53:23;100393.69;;;-0.88;100.00
61757;BME280;57225;61.460;24.060;2023-02-12T09:56:12;100389.34;;;-0.81;100.00
61757;BME280;57225;61.460;24.060;2023-02-12T09:58:59;100371.31;;;-0.82;100.00
61757;BME280;57225;61.460;24.060;2023-02-12T10:01:45;100369.75;;;-0.83;100.00
61757;BME280;57225;61.460;24.060;2023-02-12T10:04:30;100357.19;;;-0.66;100.00
61757;BME280;57225;61.460;24.060;2023-02-12T10:07:46;100349.78;;;-0.66;100.00
61757;BME280;57225;61.460;24.060;2023-02-12T10:14:25;100355.09;;;-0.61;100.00
61757;BME280;57225;61.460;24.060;2023-02-12T10:17:22;100344.09;;;-0.44;100.00
61757;BME280;57225;61.460;24.060;2023-02-12T10:23:29;100350.06;;;-0.50;100.00
61757;BME280;57225;61.460;24.060;2023-02-12T10:26:21;100336.69;;;-0.34;100.00
61757;BME280;57225;61.460;24.060;2023-02-12T10:29:16;100346.97;;;-0.14;100.00
61757;BME280;57225;61.460;24.060;2023-02-12T10:32:11;100355.25;;;0.15;100.00
61757;BME280;57225;61.460;24.060;2023-02-12T10:34:58;100356.47;;;0.35;100.00
61757;BME280;57225;61.460;24.060;2023-02-12T10:37:57;100355.88;;;0.29;100.00
61757;BME280;57225;61.460;24.060;2023-02-12T10:40:44;100349.13;;;0.18;100.00
61757;BME280;57225;61.460;24.060;2023-02-12T10:43:29;100350.31;;;0.38;100.00
61757;BME280;57225;61.460;24.060;2023-02-12T10:46:15;100346.84;;;0.58;100.00
61757;BME280;57225;61.460;24.060;2023-02-12T10:49:00;100325.59;;;0.76;99.59
61757;BME280;57225;61.460;24.060;2023-02-12T10:54:36;100329.63;;;0.78;99.80
61757;BME280;57225;61.460;24.060;2023-02-12T10:57:23;100320.59;;;0.78;100.00
61757;BME280;57225;61.460;24.060;2023-02-12T11:00:36;100309.00;;;0.72;100.00
61757;BME280;57225;61.460;24.060;2023-02-12T11:03:23;100300.47;;;0.74;100.00
61757;BME280;57225;61.460;24.060;2023-02-12T11:06:19;100299.69;;;0.65;100.00
61757;BME280;57225;61.460;24.060;2023-02-12T11:09:04;100295.09;;;0.77;100.00
61757;BME280;57225;61.460;24.060;2023-02-12T11:11:48;100295.34;;;0.64;100.00
61757;BME280;57225;61.460;24.060;2023-02-12T11:14:33;100302.25;;;0.70;100.00
61757;BME280;57225;61.460;24.060;2023-02-12T11:17:42;100287.88;;;0.73;100.00
61757;BME280;57225;61.460;24.060;2023-02-12T11:20:36;100287.03;;;0.81;100.00
61757;BME280;57225;61.460;24.060;2023-02-12T11:23:30;100276.13;;;0.93;100.00
61757;BME280;57225;61.460;24.060;2023-02-12T11:29:18;100275.03;;;1.06;100.00
61757;BME280;57225;61.460;24.060;2023-02-12T11:32:05;100261.28;;;0.94;100.00
61757;BME280;57225;61.460;24.060;2023-02-12T11:35:12;100264.66;;;0.91;100.00
61757;BME280;57225;61.460;24.060;2023-02-12T11:37:58;100244.06;;;0.85;100.00
61757;BME280;57225;61.460;24.060;2023-02-12T11:40:45;100243.56;;;0.83;100.00
61757;BME280;57225;61.460;24.060;2023-02-12T11:43:33;100238.56;;;0.85;100.00
61757;BME280;57225;61.460;24.060;2023-02-12T11:46:22;100241.59;;;0.92;100.00
61757;BME280;57225;61.460;24.060;2023-02-12T11:49:18;100243.31;;;0.97;100.00
61757;BME280;57225;61.460;24.060;2023-02-12T11:52:05;100240.56;;;1.17;100.00
61757;BME280;57225;61.460;24.060;2023-02-12T11:54:51;100252.63;;;1.04;100.00
61757;BME280;57225;61.460;24.060;2023-02-12T11:57:50;100245.50;;;1.03;100.00
61757;BME280;57225;61.460;24.060;2023-02-12T12:00:39;100243.97;;;1.14;100.00
61757;BME280;57225;61.460;24.060;2023-02-12T12:12:12;100251.34;;;1.02;100.00
61757;BME280;57225;61.460;24.060;2023-02-12T12:15:19;100235.34;;;0.83;100.00
61757;BME280;57225;61.460;24.060;2023-02-12T12:18:43;100239.66;;;0.93;100.00
61757;BME280;57225;61.460;24.060;2023-02-12T12:22:02;100241.31;;;1.06;100.00
61757;BME280;57225;61.460;24.060;2023-02-12T12:31:01;100228.19;;;1.11;100.00
61757;BME280;57225;61.460;24.060;2023-02-12T12:45:48;100211.72;;;1.11;100.00
61757;BME280;57225;61.460;24.060;2023-02-12T12:49:26;100194.06;;;1.00;100.00
61757;BME280;57225;61.460;24.060;2023-02-12T12:58:17;100201.66;;;1.15;100.00
61757;BME280;57225;61.460;24.060;2023-02-12T13:13:47;100191.84;;;1.27;100.00
61757;BME280;57225;61.460;24.060;2023-02-12T13:16:37;100195.31;;;1.36;100.00
61757;BME280;57225;61.460;24.060;2023-02-12T13:19:40;100182.06;;;1.50;100.00
61757;BME280;57225;61.460;24.060;2023-02-12T13:22:43;100182.63;;;1.43;100.00
61757;BME280;57225;61.460;24.060;2023-02-12T13:25:35;100182.72;;;1.35;100.00
61757;BME280;57225;61.460;24.060;2023-02-12T13:28:32;100180.78;;;1.35;100.00
61757;BME280;57225;61.460;24.060;2023-02-12T13:31:21;100151.47;;;1.39;100.00
61757;BME280;57225;61.460;24.060;2023-02-12T13:34:12;100149.53;;;1.40;100.00
61757;BME280;57225;61.460;24.060;2023-02-12T13:37:02;100160.97;;;1.30;100.00
61757;BME280;57225;61.460;24.060;2023-02-12T13:39:47;100144.25;;;1.23;100.00
61757;BME280;57225;61.460;24.060;2023-02-12T13:45:29;100149.28;;;1.20;100.00
61757;BME280;57225;61.460;24.060;2023-02-12T13:48:23;100152.13;;;1.12;100.00
61757;BME280;57225;61.460;24.060;2023-02-12T13:54:37;100154.94;;;1.03;100.00
61757;BME280;57225;61.460;24.060;2023-02-12T13:57:23;100138.50;;;1.03;100.00
61757;BME280;57225;61.460;24.060;2023-02-12T14:03:30;100141.19;;;0.91;100.00
61757;BME280;57225;61.460;24.060;2023-02-12T14:06:20;100135.28;;;1.01;100.00
61757;BME280;57225;61.460;24.060;2023-02-12T14:09:09;100137.31;;;0.92;100.00
61757;BME280;57225;61.460;24.060;2023-02-12T14:11:54;100129.31;;;0.87;100.00
61757;BME280;57225;61.460;24.060;2023-02-12T14:14:45;100128.00;;;0.72;100.00
61757;BME280;57225;61.460;24.060;2023-02-12T14:23:25;100129.13;;;0.51;100.00
61757;BME280;57225;61.460;24.060;2023-02-12T14:26:14;100111.09;;;0.50;100.00
61757;BME280;57225;61.460;24.060;2023-02-12T14:29:01;100112.25;;;0.49;100.00
61757;BME280;57225;61.460;24.060;2023-02-12T14:31:47;100105.56;;;0.70;100.00
61757;BME280;57225;61.460;24.060;2023-02-12T14:37:32;100094.56;;;0.58;100.00
61757;BME280;57225;61.460;24.060;2023-02-12T14:43:30;100073.16;;;0.52;100.00
61757;BME280;57225;61.460;24.060;2023-02-12T14:49:31;100082.41;;;0.47;100.00
61757;BME280;57225;61.460;24.060;2023-02-12T14:52:37;100076.50;;;0.24;100.00
61757;BME280;57225;61.460;24.060;2023-02-12T14:55:31;100077.09;;;0.30;100.00
61757;BME280;57225;61.460;24.060;2023-02-12T14:58:22;100067.78;;;0.22;100.00
61757;BME280;57225;61.460;24.060;2023-02-12T15:01:08;100065.66;;;0.28;100.00
61757;BME280;57225;61.460;24.060;2023-02-12T15:03:54;100063.94;;;0.23;100.00
61757;BME280;57225;61.460;24.060;2023-02-12T15:06:46;100071.06;;;0.16;100.00
61757;BME280;57225;61.460;24.060;2023-02-12T15:09:36;100084.97;;;0.11;100.00
61757;BME280;57225;61.460;24.060;2023-02-12T15:12:33;100086.03;;;-0.03;100.00
61757;BME280;57225;61.460;24.060;2023-02-12T15:15:27;100084.03;;;-0.14;100.00
61757;BME280;57225;61.460;24.060;2023-02-12T15:18:36;100086.03;;;-0.03;100.00
61757;BME280;57225;61.460;24.060;2023-02-12T15:21:26;100083.34;;;-0.11;100.00
61757;BME280;57225;61.460;24.060;2023-02-12T15:24:20;100083.84;;;-0.09;100.00
61757;BME280;57225;61.460;24.060;2023-02-12T15:27:05;100093.38;;;-0.15;100.00
61757;BME280;57225;61.460;24.060;2023-02-12T15:29:51;100073.72;;;-0.17;100.00
61757;BME280;57225;61.460;24.060;2023-02-12T15:32:37;100085.63;;;0.08;100.00
61757;BME280;57225;61.460;24.060;2023-02-12T15:35:25;100092.25;;;0.07;100.00
61757;BME280;57225;61.460;24.060;2023-02-12T15:38:22;100097.53;;;0.32;100.00
61757;BME280;57225;61.460;24.060;2023-02-12T15:44:23;100065.97;;;0.26;100.00
61757;BME280;57225;61.460;24.060;2023-02-12T15:47:13;100073.44;;;0.38;100.00
61757;BME280;57225;61.460;24.060;2023-02-12T15:49:58;100065.81;;;0.31;100.00
61757;BME280;57225;61.460;24.060;2023-02-12T15:52:45;100067.03;;;0.34;100.00
61757;BME280;57225;61.460;24.060;2023-02-12T15:55:34;100063.25;;;0.26;100.00
61757;BME280;57225;61.460;24.060;2023-02-12T16:01:16;100051.13;;;0.48;100.00
61757;BME280;57225;61.460;24.060;2023-02-12T16:04:04;100064.50;;;0.50;100.00
61757;BME280;57225;61.460;24.060;2023-02-12T16:06:49;100050.88;;;0.41;100.00
61757;BME280;57225;61.460;24.060;2023-02-12T16:09:34;100050.75;;;0.37;100.00
61757;BME280;57225;61.460;24.060;2023-02-12T16:12:22;100046.72;;;0.35;100.00
61757;BME280;57225;61.460;24.060;2023-02-12T16:15:24;100041.97;;;0.44;100.00
61757;BME280;57225;61.460;24.060;2023-02-12T16:18:34;100035.19;;;0.62;100.00
61757;BME280;57225;61.460;24.060;2023-02-12T16:21:21;100029.47;;;0.67;100.00
61757;BME280;57225;61.460;24.060;2023-02-12T16:24:30;100025.78;;;0.63;100.00
61757;BME280;57225;61.460;24.060;2023-02-12T16:27:21;100005.81;;;0.63;100.00
61757;BME280;57225;61.460;24.060;2023-02-12T16:30:25;100024.09;;;0.71;100.00
61757;BME280;57225;61.460;24.060;2023-02-12T16:33:47;100014.59;;;0.56;100.00
61757;BME280;57225;61.460;24.060;2023-02-12T16:36:32;100003.81;;;0.51;100.00
61757;BME280;57225;61.460;24.060;2023-02-12T16:42:37;99992.47;;;0.73;100.00
61757;BME280;57225;61.460;24.060;2023-02-12T16:48:21;99970.28;;;0.91;100.00
61757;BME280;57225;61.460;24.060;2023-02-12T16:51:34;99952.81;;;1.07;100.00
61757;BME280;57225;61.460;24.060;2023-02-12T16:54:33;99964.00;;;1.27;100.00
61757;BME280;57225;61.460;24.060;2023-02-12T16:57:18;99981.38;;;1.43;100.00
61757;BME280;57225;61.460;24.060;2023-02-12T17:00:04;99968.31;;;1.52;100.00
61757;BME280;57225;61.460;24.060;2023-02-12T17:02:48;99952.75;;;1.56;100.00
61757;BME280;57225;61.460;24.060;2023-02-12T17:05:33;99973.78;;;1.52;100.00